Time;durP1;ratioP1;P1;durP2;ratioP2;P2;SDS_P1;SDS_P2;PMS_P1;PMS_P2;Temp;Humidity;BMP_temperature;BMP_pressure;BME280_temperature;BME280_humidity;BME280_pressure;Samples;Min_cycle;Max_cycle;Signal;HPM_P1;HPM_P2
2020/12/30 00:00:22;;;;;;;31.23;12.98;;;;;;;0.04;74.71;98694.62;2116156;82;21155;-67
2020/12/30 00:03:25;;;;;;;25.30;12.03;;;;;;;0.02;74.82;98686.91;2118031;82;21567;-70
2020/12/30 00:06:27;;;;;;;45.50;21.70;;;;;;;-0.11;74.93;98684.58;2115679;82;21231;-66
2020/12/30 00:09:28;;;;;;;53.05;23.75;;;;;;;-0.26;75.50;98685.89;2116825;82;21141;-66
2020/12/30 00:12:32;;;;;;;37.35;17.35;;;;;;;-0.35;75.47;98688.00;2108924;82;21106;-66
2020/12/30 00:15:34;;;;;;;31.97;14.75;;;;;;;-0.36;75.59;98697.60;2115870;82;21192;-67
2020/12/30 00:18:37;;;;;;;35.58;17.20;;;;;;;-0.50;75.58;98705.30;2116504;82;21193;-67
2020/12/30 00:21:38;;;;;;;35.80;17.23;;;;;;;-0.60;75.95;98708.81;2116570;82;21121;-66
2020/12/30 00:24:40;;;;;;;36.55;16.42;;;;;;;-0.79;76.32;98713.44;2115559;82;21200;-66
2020/12/30 00:27:43;;;;;;;35.00;17.25;;;;;;;-0.93;76.51;98718.05;2111624;82;21137;-66
2020/12/30 00:30:46;;;;;;;36.55;17.60;;;;;;;-1.02;76.87;98711.46;2116126;82;21552;-70
2020/12/30 00:33:47;;;;;;;30.48;12.53;;;;;;;-1.00;77.01;98722.09;2115476;82;21135;-66
2020/12/30 00:36:48;;;;;;;23.18;11.97;;;;;;;-0.98;77.13;98721.98;2114875;83;21236;-65
2020/12/30 00:39:50;;;;;;;28.10;12.82;;;;;;;-0.93;77.35;98724.55;2116202;82;21129;-67
2020/12/30 00:42:52;;;;;;;28.02;12.63;;;;;;;-0.86;77.38;98730.06;2096250;82;21266;-67
2020/12/30 00:45:53;;;;;;;26.48;13.25;;;;;;;-0.79;77.42;98732.52;2115755;82;21150;-67
2020/12/30 00:48:55;;;;;;;23.35;12.50;;;;;;;-0.68;77.54;98742.02;2117546;82;21699;-67
2020/12/30 00:51:58;;;;;;;24.65;12.00;;;;;;;-0.60;77.46;98751.31;2117721;82;21165;-66
2020/12/30 00:55:03;;;;;;;22.15;10.32;;;;;;;-0.69;77.33;98761.22;2097808;82;21140;-67
2020/12/30 00:58:18;;;;;;;23.00;10.53;;;;;;;-0.66;77.42;98762.74;2080977;82;21670;-66
2020/12/30 01:01:22;;;;;;;22.70;12.05;;;;;;;-0.60;77.38;98763.52;2119533;82;21132;-67
2020/12/30 01:04:42;;;;;;;28.52;12.75;;;;;;;-0.52;77.37;98758.50;2122610;82;21071;-67
2020/12/30 01:07:44;;;;;;;20.85;11.18;;;;;;;-0.44;77.32;98750.04;2121484;82;21109;-67
2020/12/30 01:10:46;;;;;;;28.23;12.68;;;;;;;-0.41;77.30;98756.30;2114445;82;21169;-67
2020/12/30 01:13:47;;;;;;;26.30;12.90;;;;;;;-0.37;77.39;98753.76;2113787;82;21624;-67
2020/12/30 01:16:53;;;;;;;23.40;12.43;;;;;;;-0.47;77.35;98772.79;2118954;82;21118;-67
2020/12/30 01:19:54;;;;;;;27.62;13.48;;;;;;;-0.53;77.59;98762.89;2114114;82;21117;-67
2020/12/30 01:22:56;;;;;;;33.53;15.20;;;;;;;-0.57;77.40;98769.30;2115954;82;21541;-69
2020/12/30 01:25:57;;;;;;;40.33;17.07;;;;;;;-0.55;77.60;98772.61;2116288;83;21596;-67
2020/12/30 01:28:59;;;;;;;23.87;11.97;;;;;;;-0.56;77.53;98766.23;2119254;82;21121;-67
2020/12/30 01:32:02;;;;;;;19.42;10.65;;;;;;;-0.53;77.64;98772.48;2112279;82;21172;-67
2020/12/30 01:35:05;;;;;;;22.10;11.85;;;;;;;-0.47;77.66;98767.58;2109479;82;23133;-67
2020/12/30 01:38:06;;;;;;;28.12;12.85;;;;;;;-0.39;77.56;98772.15;2120647;82;21162;-71
2020/12/30 01:41:09;;;;;;;28.40;13.50;;;;;;;-0.33;77.58;98770.32;2115454;82;21497;-66
2020/12/30 01:44:12;;;;;;;31.20;14.75;;;;;;;-0.31;77.50;98774.94;2119225;82;21222;-71
2020/12/30 01:47:16;;;;;;;33.55;14.78;;;;;;;-0.37;77.36;98778.03;2115346;82;21128;-68
2020/12/30 01:50:18;;;;;;;28.42;14.58;;;;;;;-0.39;77.50;98777.84;2114222;82;21731;-66
2020/12/30 01:53:21;;;;;;;24.60;12.18;;;;;;;-0.43;77.28;98795.50;2120013;82;21123;-67
2020/12/30 01:56:27;;;;;;;21.73;10.78;;;;;;;-0.70;77.38;98812.50;2112720;82;21125;-67
2020/12/30 01:59:28;;;;;;;22.45;10.72;;;;;;;-0.90;77.53;98808.11;2112183;82;21201;-67
2020/12/30 02:02:30;;;;;;;19.37;10.30;;;;;;;-0.93;78.28;98805.28;2115504;82;21224;-67
2020/12/30 02:05:33;;;;;;;24.95;11.68;;;;;;;-0.89;78.37;98790.70;2117849;82;21238;-67
2020/12/30 02:08:34;;;;;;;24.25;12.43;;;;;;;-0.79;78.40;98791.58;2117745;82;21599;-67
2020/12/30 02:11:36;;;;;;;28.85;14.07;;;;;;;-0.68;78.44;98782.39;2117717;82;21186;-71
2020/12/30 02:14:38;;;;;;;30.27;12.10;;;;;;;-0.56;78.50;98783.17;2114211;82;21157;-67
2020/12/30 02:17:39;;;;;;;23.22;11.50;;;;;;;-0.47;78.31;98783.21;2122528;82;22534;-67
2020/12/30 02:20:41;;;;;;;23.92;11.45;;;;;;;-0.41;78.12;98787.56;2119176;82;21560;-67
2020/12/30 02:23:44;;;;;;;20.77;10.72;;;;;;;-0.47;77.99;98796.24;2118714;82;21174;-66
2020/12/30 02:26:46;;;;;;;24.43;11.10;;;;;;;-0.57;78.08;98794.53;2095264;82;21515;-67
2020/12/30 02:29:47;;;;;;;28.30;13.40;;;;;;;-0.55;78.37;98793.94;2119448;82;21145;-68
2020/12/30 02:32:49;;;;;;;22.55;11.53;;;;;;;-0.64;78.61;98790.31;2111807;82;21561;-69
2020/12/30 02:35:51;;;;;;;30.88;13.32;;;;;;;-0.63;78.54;98794.56;2115531;82;21128;-69
2020/12/30 02:38:54;;;;;;;21.55;11.73;;;;;;;-0.59;78.73;98782.95;2122240;82;21194;-67
2020/12/30 02:41:55;;;;;;;27.00;12.40;;;;;;;-0.54;78.66;98783.36;2116821;82;21145;-67
2020/12/30 02:45:04;;;;;;;22.17;12.00;;;;;;;-0.47;78.64;98788.91;2117288;82;22295;-71
2020/12/30 02:48:07;;;;;;;24.52;12.25;;;;;;;-0.47;78.37;98787.61;2118912;82;21185;-67
2020/12/30 02:51:10;;;;;;;30.08;12.82;;;;;;;-0.55;78.39;98788.72;2120791;82;21509;-67
2020/12/30 02:54:11;;;;;;;27.42;12.60;;;;;;;-0.62;78.58;98784.52;2118417;82;21207;-68
2020/12/30 02:57:13;;;;;;;25.23;12.68;;;;;;;-0.56;78.79;98789.20;2121787;82;21131;-68
2020/12/30 03:00:15;;;;;;;28.52;13.28;;;;;;;-0.54;78.73;98787.27;2114222;82;21549;-69
2020/12/30 03:03:16;;;;;;;26.25;13.08;;;;;;;-0.50;78.88;98783.47;2102947;83;21160;-68
2020/12/30 03:06:24;;;;;;;36.20;17.00;;;;;;;-0.47;78.56;98788.42;2113984;82;21113;-67
2020/12/30 03:09:27;;;;;;;35.20;15.72;;;;;;;-0.49;78.64;98780.38;2112915;82;21505;-66
2020/12/30 03:12:29;;;;;;;33.13;16.20;;;;;;;-0.56;78.87;98781.87;2114919;82;21188;-67
2020/12/30 03:15:31;;;;;;;37.42;15.65;;;;;;;-0.56;79.14;98776.17;2107957;82;21172;-68
2020/12/30 03:18:32;;;;;;;32.83;15.45;;;;;;;-0.51;79.12;98774.02;2093211;83;21154;-71
2020/12/30 03:21:34;;;;;;;35.85;17.20;;;;;;;-0.44;79.08;98768.28;2096806;83;21124;-67
2020/12/30 03:24:35;;;;;;;34.18;16.30;;;;;;;-0.39;79.13;98762.20;2092676;83;22702;-67
2020/12/30 03:27:37;;;;;;;34.92;16.48;;;;;;;-0.34;79.11;98766.53;2092410;83;21221;-67
2020/12/30 03:30:38;;;;;;;60.63;25.32;;;;;;;-0.31;79.07;98774.08;2091323;83;21138;-67
2020/12/30 03:33:40;;;;;;;42.80;19.77;;;;;;;-0.30;79.08;98773.15;2093732;83;21211;-67
2020/12/30 03:36:41;;;;;;;39.90;17.65;;;;;;;-0.24;79.13;98766.92;2091070;83;21125;-68
2020/12/30 03:39:43;;;;;;;30.72;15.28;;;;;;;-0.19;78.90;98771.75;2092867;83;21092;-68
2020/12/30 03:42:44;;;;;;;35.35;14.07;;;;;;;-0.16;78.84;98773.28;2094222;83;21152;-71
2020/12/30 03:45:46;;;;;;;29.82;14.47;;;;;;;-0.14;78.76;98780.02;2095069;84;21141;-68
2020/12/30 03:48:48;;;;;;;40.52;19.35;;;;;;;-0.16;78.57;98774.58;2091796;83;21207;-67
2020/12/30 03:51:50;;;;;;;35.88;16.30;;;;;;;-0.31;78.62;98770.17;2095320;83;21109;-68
2020/12/30 03:54:51;;;;;;;32.53;16.80;;;;;;;-0.41;78.67;98769.32;2091798;84;21546;-72
2020/12/30 03:57:53;;;;;;;31.10;15.90;;;;;;;-0.44;78.87;98771.70;2091456;83;21212;-67
2020/12/30 04:00:54;;;;;;;33.60;16.73;;;;;;;-0.40;78.86;98773.56;2092660;84;21525;-67
2020/12/30 04:03:56;;;;;;;39.05;16.85;;;;;;;-0.38;78.96;98774.27;2094190;83;21112;-71
2020/12/30 04:06:57;;;;;;;27.82;14.35;;;;;;;-0.30;79.14;98762.23;2095488;83;21199;-67
2020/12/30 04:09:59;;;;;;;32.95;16.17;;;;;;;-0.29;79.01;98766.48;2094219;83;21722;-67
2020/12/30 04:13:00;;;;;;;31.10;14.70;;;;;;;-0.25;79.00;98768.38;2089686;83;21552;-67
2020/12/30 04:16:02;;;;;;;25.57;13.68;;;;;;;-0.22;78.85;98772.02;2100818;83;21300;-67
2020/12/30 04:19:05;;;;;;;27.45;12.00;;;;;;;-0.18;78.85;98771.27;2118064;82;21182;-67
2020/12/30 04:22:06;;;;;;;29.23;14.83;;;;;;;-0.26;78.63;98771.91;2115910;82;21200;-67
2020/12/30 04:25:08;;;;;;;35.50;16.12;;;;;;;-0.41;78.63;98768.84;2115709;82;21236;-69
2020/12/30 04:28:09;;;;;;;48.78;22.98;;;;;;;-0.49;78.85;98766.87;2117962;82;21170;-67
2020/12/30 04:31:12;;;;;;;40.70;16.62;;;;;;;-0.52;78.84;98768.92;2114897;82;21576;-71
2020/12/30 04:34:13;;;;;;;33.60;16.97;;;;;;;-0.59;78.98;98763.41;2118872;82;21184;-71
2020/12/30 04:37:15;;;;;;;89.40;36.20;;;;;;;-0.67;79.12;98774.13;2120891;82;21617;-67
2020/12/30 04:40:16;;;;;;;51.92;21.05;;;;;;;-0.70;79.34;98773.91;2118048;82;21156;-67
2020/12/30 04:43:19;;;;;;;40.67;20.05;;;;;;;-0.72;79.50;98777.10;2122492;82;21208;-68
2020/12/30 04:46:22;;;;;;;42.33;20.65;;;;;;;-0.74;79.40;98778.52;2116889;82;21192;-69
2020/12/30 04:49:24;;;;;;;43.15;19.02;;;;;;;-0.81;79.40;98786.52;2118543;82;21097;-67
2020/12/30 04:52:27;;;;;;;33.70;16.93;;;;;;;-0.81;79.75;98786.99;2117249;82;21174;-67
2020/12/30 04:55:34;;;;;;;31.48;16.35;;;;;;;-0.80;79.93;98792.06;2118482;82;21204;-68
2020/12/30 04:58:35;;;;;;;32.40;15.45;;;;;;;-0.79;79.95;98796.33;2116376;82;21141;-67
2020/12/30 05:02:04;;;;;;;30.95;16.02;;;;;;;-0.80;79.94;98785.55;2095235;82;21208;-68
2020/12/30 05:05:06;;;;;;;31.50;15.05;;;;;;;-0.75;80.26;98794.30;2118445;82;21161;-67
2020/12/30 05:08:15;;;;;;;32.38;15.25;;;;;;;-0.72;80.29;98785.73;2121631;82;21184;-68
2020/12/30 05:11:16;;;;;;;49.65;23.42;;;;;;;-0.69;80.34;98792.00;2119592;82;21101;-67
2020/12/30 05:14:17;;;;;;;30.00;15.30;;;;;;;-0.70;80.35;98776.51;2114862;82;21186;-68
2020/12/30 05:17:19;;;;;;;33.95;15.68;;;;;;;-0.72;80.56;98776.63;2125901;82;21169;-68
2020/12/30 05:20:24;;;;;;;36.13;15.75;;;;;;;-0.71;80.61;98789.98;2128643;82;21564;-68
2020/12/30 05:23:27;;;;;;;35.45;16.57;;;;;;;-0.67;80.76;98793.19;2128329;82;21572;-68
2020/12/30 05:26:31;;;;;;;48.23;19.15;;;;;;;-0.57;80.67;98791.92;2072794;82;21563;-67
2020/12/30 05:29:32;;;;;;;44.25;17.73;;;;;;;-0.53;80.42;98792.86;2127906;82;21568;-68
2020/12/30 05:32:37;;;;;;;54.83;17.82;;;;;;;-0.55;80.36;98790.84;2125031;82;21161;-69
2020/12/30 05:35:39;;;;;;;34.75;15.83;;;;;;;-0.56;80.10;98797.02;2131251;82;21137;-68
2020/12/30 05:38:40;;;;;;;34.78;15.20;;;;;;;-0.58;80.05;98801.53;2126750;81;21151;-67
2020/12/30 05:41:42;;;;;;;49.75;23.40;;;;;;;-0.54;80.09;98792.48;2130406;82;21492;-68
2020/12/30 05:44:45;;;;;;;66.87;25.85;;;;;;;-0.51;80.15;98799.22;2126462;82;21112;-68
2020/12/30 05:47:48;;;;;;;51.28;21.20;;;;;;;-0.50;80.14;98803.02;2129090;82;21156;-66
2020/12/30 05:50:58;;;;;;;41.98;17.48;;;;;;;-0.48;80.14;98805.02;2124987;82;21243;-70
2020/12/30 05:54:13;;;;;;;30.73;14.87;;;;;;;-0.44;80.10;98813.89;2125343;82;21882;-68
2020/12/30 05:57:29;;;;;;;52.20;20.23;;;;;;;-0.55;80.05;98796.05;2129713;82;21136;-67
2020/12/30 06:00:31;;;;;;;34.48;14.78;;;;;;;-0.50;79.85;98822.56;2127019;82;21528;-67
2020/12/30 06:03:32;;;;;;;25.82;13.43;;;;;;;-0.51;79.93;98833.95;2127241;82;21223;-67
2020/12/30 06:06:34;;;;;;;42.10;18.67;;;;;;;-0.51;80.07;98833.95;2127439;82;21157;-67
2020/12/30 06:09:39;;;;;;;216.00;25.82;;;;;;;-0.46;80.11;98836.97;2098214;82;21136;-68
2020/12/30 06:12:51;;;;;;;32.45;16.60;;;;;;;-0.48;80.02;98837.60;2126282;82;21125;-67
2020/12/30 06:15:56;;;;;;;33.55;14.40;;;;;;;-0.46;80.06;98847.40;2126734;81;21133;-67
2020/12/30 06:18:58;;;;;;;36.63;19.30;;;;;;;-0.46;79.95;98848.70;2117215;82;21868;-67
2020/12/30 06:22:01;;;;;;;34.30;18.30;;;;;;;-0.46;80.02;98857.83;2111231;82;21605;-67
2020/12/30 06:25:05;;;;;;;34.13;17.27;;;;;;;-0.50;80.04;98859.05;2094211;83;21310;-67
2020/12/30 06:28:16;;;;;;;32.25;18.62;;;;;;;-0.50;80.12;98865.56;2116785;82;21210;-67
2020/12/30 06:31:18;;;;;;;40.83;19.82;;;;;;;-0.49;80.16;98865.08;2117912;82;21126;-67
2020/12/30 06:34:20;;;;;;;37.90;17.98;;;;;;;-0.45;80.30;98865.19;2120056;82;21209;-68
2020/12/30 06:37:33;;;;;;;39.08;18.70;;;;;;;-0.48;79.99;98881.91;2115711;82;21083;-68
2020/12/30 06:40:35;;;;;;;35.80;17.55;;;;;;;-0.54;80.07;98873.27;2122394;82;21531;-67
2020/12/30 06:43:49;;;;;;;34.40;16.37;;;;;;;-0.65;80.01;98875.92;2116891;82;21200;-68
2020/12/30 06:46:51;;;;;;;35.60;17.10;;;;;;;-0.74;80.18;98887.92;2121215;82;21228;-66
2020/12/30 06:49:54;;;;;;;41.60;18.73;;;;;;;-0.73;80.30;98889.60;2111923;82;21645;-67
2020/12/30 06:52:55;;;;;;;69.90;18.15;;;;;;;-0.67;80.45;98888.27;2118426;82;21176;-70
2020/12/30 06:55:59;;;;;;;33.75;17.07;;;;;;;-0.55;80.54;98887.25;2122866;82;21164;-68
2020/12/30 06:59:01;;;;;;;33.02;16.70;;;;;;;-0.49;80.39;98886.75;2120350;82;21178;-68
2020/12/30 07:02:07;;;;;;;38.17;18.67;;;;;;;-0.51;80.14;98888.67;2118004;82;21115;-68
2020/12/30 07:05:09;;;;;;;35.68;16.77;;;;;;;-0.44;80.32;98892.89;2117348;82;21676;-67
2020/12/30 07:08:14;;;;;;;33.00;16.40;;;;;;;-0.39;80.19;98906.38;2115562;82;21096;-68
2020/12/30 07:11:40;;;;;;;33.30;15.78;;;;;;;-0.39;79.98;98912.07;2118343;82;21204;-67
2020/12/30 07:14:42;;;;;;;29.80;15.40;;;;;;;-0.37;79.99;98911.45;2115776;82;21138;-68
2020/12/30 07:17:45;;;;;;;30.17;15.00;;;;;;;-0.40;79.94;98911.70;2108779;82;21121;-66
2020/12/30 07:20:46;;;;;;;32.63;17.07;;;;;;;-0.43;79.75;98902.84;2104023;81;21584;-67
2020/12/30 07:23:49;;;;;;;32.93;15.55;;;;;;;-0.43;79.95;98897.63;2103840;83;21330;-70
2020/12/30 07:26:55;;;;;;;31.65;15.65;;;;;;;-0.39;79.87;98899.86;2101737;81;21515;-67
2020/12/30 07:29:57;;;;;;;28.55;14.93;;;;;;;-0.44;79.75;98897.28;2103970;81;21121;-68
2020/12/30 07:32:59;;;;;;;38.17;16.90;;;;;;;-0.43;79.85;98896.32;2100584;83;21116;-73
2020/12/30 07:36:06;;;;;;;33.78;17.05;;;;;;;-0.40;79.85;98891.67;2097392;81;21116;-69
2020/12/30 07:39:08;;;;;;;39.58;16.57;;;;;;;-0.32;79.88;98898.86;2102822;83;21138;-70
2020/12/30 07:42:29;;;;;;;46.08;19.27;;;;;;;-0.33;79.72;98893.31;2097850;83;21194;-67
2020/12/30 07:45:30;;;;;;;39.63;17.85;;;;;;;-0.31;79.64;98893.98;2099155;83;21207;-68
2020/12/30 07:48:32;;;;;;;38.40;19.50;;;;;;;-0.30;79.67;98904.30;2103425;83;21231;-68
2020/12/30 07:51:33;;;;;;;43.50;19.35;;;;;;;-0.34;79.52;98908.58;2100644;83;21201;-68
2020/12/30 07:54:37;;;;;;;38.08;19.25;;;;;;;-0.31;79.62;98905.72;2099954;83;21164;-68
2020/12/30 07:57:39;;;;;;;38.73;20.02;;;;;;;-0.28;79.64;98915.44;2099821;83;21201;-68
2020/12/30 08:00:44;;;;;;;39.48;18.87;;;;;;;-0.32;79.64;98903.59;2103220;82;21243;-69
2020/12/30 08:03:47;;;;;;;39.05;17.77;;;;;;;-0.25;79.88;98903.45;2079347;83;21096;-70
2020/12/30 08:06:49;;;;;;;44.40;20.65;;;;;;;-0.17;79.91;98909.34;2100404;83;21077;-69
2020/12/30 08:09:51;;;;;;;42.43;20.20;;;;;;;-0.12;79.74;98903.72;2103442;83;21164;-68
2020/12/30 08:12:52;;;;;;;37.00;18.48;;;;;;;-0.16;79.68;98903.16;2101980;83;21138;-68
2020/12/30 08:15:54;;;;;;;49.13;24.35;;;;;;;-0.16;79.78;98903.16;2102224;83;21474;-69
2020/12/30 08:18:57;;;;;;;71.90;31.70;;;;;;;-0.14;79.92;98896.49;2117620;82;21130;-68
2020/12/30 08:22:11;;;;;;;62.17;30.32;;;;;;;-0.23;79.84;98891.58;2118200;82;21173;-68
2020/12/30 08:25:13;;;;;;;86.50;39.38;;;;;;;-0.22;80.01;98895.03;2112439;82;21150;-72
2020/12/30 08:28:14;;;;;;;132.97;51.35;;;;;;;-0.09;80.17;98902.98;2118470;82;21232;-68
2020/12/30 08:31:17;;;;;;;71.07;31.10;;;;;;;-0.04;80.14;98908.64;2117089;82;21185;-68
2020/12/30 08:34:22;;;;;;;73.92;30.25;;;;;;;0.06;80.22;98901.34;2117910;82;21647;-70
2020/12/30 08:37:30;;;;;;;49.05;22.85;;;;;;;0.21;80.28;98911.80;2117452;82;21148;-68
2020/12/30 08:40:34;;;;;;;56.48;25.72;;;;;;;0.32;80.18;98903.87;2116571;82;21133;-69
2020/12/30 08:43:41;;;;;;;61.58;27.87;;;;;;;0.48;80.22;98903.40;2118010;82;21536;-70
2020/12/30 08:46:47;;;;;;;66.33;31.30;;;;;;;0.60;80.14;98901.51;2122079;82;21596;-68
2020/12/30 08:49:50;;;;;;;65.28;30.68;;;;;;;0.68;80.02;98897.75;2117529;82;21192;-73
2020/12/30 08:52:55;;;;;;;86.85;37.03;;;;;;;0.78;80.03;98899.89;2116343;82;21184;-71
2020/12/30 08:55:56;;;;;;;75.70;33.15;;;;;;;0.82;79.88;98897.38;2121788;82;21237;-80
2020/12/30 08:58:58;;;;;;;86.72;34.20;;;;;;;0.85;79.64;98908.86;2111723;82;21186;-72
2020/12/30 09:02:13;;;;;;;53.40;24.90;;;;;;;0.74;79.46;98908.14;2119148;82;21672;-72
2020/12/30 09:05:29;;;;;;;57.67;27.82;;;;;;;0.70;79.61;98911.97;2119223;82;21726;-69
2020/12/30 09:08:31;;;;;;;70.05;31.30;;;;;;;0.80;79.96;98918.05;2112821;82;21180;-72
2020/12/30 09:11:32;;;;;;;74.90;32.28;;;;;;;0.85;79.88;98920.61;2119545;82;21183;-69
2020/12/30 09:14:38;;;;;;;70.10;33.88;;;;;;;0.94;79.95;98923.38;2117915;82;21129;-68
2020/12/30 09:17:40;;;;;;;61.05;32.78;;;;;;;1.02;79.93;98926.14;2120531;82;21200;-69
2020/12/30 09:20:42;;;;;;;67.08;31.23;;;;;;;1.05;79.79;98918.03;2136443;82;21169;-68
2020/12/30 09:23:44;;;;;;;54.08;28.10;;;;;;;1.05;79.62;98920.65;2133757;82;21196;-72
2020/12/30 09:26:45;;;;;;;55.58;28.40;;;;;;;1.07;79.67;98922.17;2134176;82;21164;-67
2020/12/30 09:30:14;;;;;;;59.77;32.53;;;;;;;1.07;79.62;98918.25;2132825;82;21645;-69
2020/12/30 09:33:22;;;;;;;77.78;41.05;;;;;;;1.10;79.73;98924.98;2132430;82;21173;-68
2020/12/30 09:36:23;;;;;;;81.90;43.73;;;;;;;1.08;79.67;98919.89;2134727;82;21186;-68
2020/12/30 09:39:29;;;;;;;109.12;59.53;;;;;;;1.09;79.66;98920.70;2134750;82;21474;-72
2020/12/30 09:42:30;;;;;;;88.85;49.60;;;;;;;1.08;79.71;98921.68;2131570;82;21100;-68
2020/12/30 09:45:32;;;;;;;86.15;47.58;;;;;;;1.09;79.70;98927.23;2130441;82;21200;-70
2020/12/30 09:48:33;;;;;;;90.25;48.05;;;;;;;1.11;79.78;98926.63;2129582;82;21160;-70
2020/12/30 09:51:34;;;;;;;88.07;50.03;;;;;;;1.28;80.08;98929.88;2133499;82;21506;-68
2020/12/30 09:54:37;;;;;;;80.67;47.20;;;;;;;1.41;79.88;98930.08;2133418;82;21320;-68
2020/12/30 09:57:39;;;;;;;89.62;49.85;;;;;;;1.40;79.57;98929.26;2134122;82;21185;-67
2020/12/30 10:00:41;;;;;;;102.95;48.08;;;;;;;1.52;79.76;98932.55;2131402;82;21157;-68
2020/12/30 10:03:42;;;;;;;365.00;100.80;;;;;;;1.53;79.68;98921.16;2135005;82;21157;-69
2020/12/30 10:06:47;;;;;;;190.15;57.43;;;;;;;1.54;79.61;98926.72;2133447;81;21133;-68
2020/12/30 10:09:48;;;;;;;58.85;31.60;;;;;;;1.57;79.62;98927.25;2129062;82;21140;-69
2020/12/30 10:12:51;;;;;;;62.13;32.13;;;;;;;1.50;79.48;98924.05;2135816;82;21540;-68
2020/12/30 10:15:52;;;;;;;198.13;60.95;;;;;;;1.45;79.49;98926.24;2132692;82;21525;-68
2020/12/30 10:18:53;;;;;;;83.70;36.33;;;;;;;1.41;79.64;98930.92;2142824;81;21108;-68
2020/12/30 10:21:55;;;;;;;76.00;34.58;;;;;;;1.47;79.78;98929.06;2121415;81;21127;-68
2020/12/30 10:25:00;;;;;;;72.30;36.65;;;;;;;1.56;79.81;98936.56;2145313;81;21151;-71
2020/12/30 10:28:03;;;;;;;135.37;50.65;;;;;;;1.65;79.82;98938.83;2144883;81;21117;-68
2020/12/30 10:31:06;;;;;;;131.65;53.35;;;;;;;1.73;79.78;98935.86;2143184;81;21163;-68
2020/12/30 10:34:07;;;;;;;86.92;43.42;;;;;;;1.82;79.81;98934.68;2144151;81;21200;-67
2020/12/30 10:37:09;;;;;;;71.33;39.95;;;;;;;1.91;79.70;98935.14;2141916;81;21155;-73
2020/12/30 10:40:12;;;;;;;68.60;36.53;;;;;;;1.93;79.53;98938.45;2143891;81;21153;-68
2020/12/30 10:43:13;;;;;;;74.25;38.90;;;;;;;1.93;79.60;98928.80;2146889;81;21164;-67
2020/12/30 10:46:17;;;;;;;64.50;34.83;;;;;;;1.98;79.37;98933.63;2141804;81;21564;-69
2020/12/30 10:49:19;;;;;;;62.23;32.93;;;;;;;2.05;79.59;98928.64;2139838;81;21246;-67
2020/12/30 10:52:22;;;;;;;67.90;37.75;;;;;;;2.08;79.45;98923.12;2141937;81;21539;-67
2020/12/30 10:55:23;;;;;;;82.57;46.98;;;;;;;2.20;79.58;98925.94;2146859;81;21190;-67
2020/12/30 10:58:25;;;;;;;128.42;56.30;;;;;;;2.24;79.49;98925.98;2145566;81;21064;-70
2020/12/30 11:01:26;;;;;;;115.52;53.92;;;;;;;2.28;79.61;98914.73;2147225;81;21104;-68
2020/12/30 11:04:28;;;;;;;108.30;56.35;;;;;;;2.33;79.57;98908.59;2145766;80;21179;-68
2020/12/30 11:07:31;;;;;;;119.55;60.63;;;;;;;2.40;79.72;98901.33;2145830;81;21165;-69
2020/12/30 11:10:32;;;;;;;155.10;81.60;;;;;;;2.51;79.80;98898.20;2147228;81;21160;-70
2020/12/30 11:13:34;;;;;;;105.22;57.70;;;;;;;2.64;79.73;98894.24;2148698;81;21136;-68
2020/12/30 11:16:35;;;;;;;90.53;49.40;;;;;;;2.72;79.59;98892.21;2143922;81;21089;-68
2020/12/30 11:19:37;;;;;;;92.90;52.95;;;;;;;2.81;79.49;98903.60;2118745;82;21120;-69
2020/12/30 11:22:39;;;;;;;114.52;61.40;;;;;;;2.91;79.68;98897.34;2115993;82;21195;-68
2020/12/30 11:25:42;;;;;;;128.97;69.35;;;;;;;3.02;79.54;98885.83;2117261;82;21138;-68
2020/12/30 11:28:44;;;;;;;127.30;65.32;;;;;;;3.12;79.49;98885.25;2115504;82;21186;-68
2020/12/30 11:31:46;;;;;;;127.17;65.05;;;;;;;3.24;79.43;98889.81;2117457;82;21221;-68
2020/12/30 11:34:49;;;;;;;145.40;75.03;;;;;;;3.38;80.02;98885.84;2113936;82;21107;-69
2020/12/30 11:37:50;;;;;;;139.18;74.25;;;;;;;3.57;79.50;98877.78;2118000;82;22349;-72
2020/12/30 11:40:52;;;;;;;134.87;69.55;;;;;;;3.59;79.12;98883.70;2115535;82;21188;-69
2020/12/30 11:43:53;;;;;;;128.32;64.32;;;;;;;3.66;79.11;98891.81;2118063;82;21185;-69
2020/12/30 11:46:55;;;;;;;192.87;93.25;;;;;;;3.70;78.94;98888.38;2111140;82;21109;-68
2020/12/30 11:49:56;;;;;;;150.87;77.45;;;;;;;3.76;79.12;98898.27;2104106;82;21652;-69
2020/12/30 11:52:58;;;;;;;113.37;58.92;;;;;;;3.89;79.28;98900.00;2098306;82;21090;-69
2020/12/30 11:56:01;;;;;;;95.30;52.33;;;;;;;4.01;79.22;98904.50;2115209;82;21169;-71
2020/12/30 11:59:03;;;;;;;87.42;50.70;;;;;;;4.04;78.90;98905.51;2100164;83;21149;-71
2020/12/30 12:02:04;;;;;;;68.52;39.27;;;;;;;3.92;78.63;98908.88;2111786;82;21522;-68
2020/12/30 12:05:11;;;;;;;70.05;39.53;;;;;;;3.87;78.86;98914.25;2117890;82;21060;-67
2020/12/30 12:08:13;;;;;;;58.98;33.30;;;;;;;3.90;79.01;98920.50;2116732;82;21117;-68
2020/12/30 12:11:14;;;;;;;61.98;36.23;;;;;;;3.95;78.94;98908.57;2093850;82;21592;-68
2020/12/30 12:17:54;;;;;;;80.00;44.45;;;;;;;4.08;78.87;98916.52;2113085;82;21180;-68
2020/12/30 12:20:56;;;;;;;84.58;44.65;;;;;;;4.11;78.70;98914.42;2115399;82;21215;-73
2020/12/30 12:23:57;;;;;;;96.82;50.92;;;;;;;4.09;78.67;98915.55;2116338;82;21185;-68
2020/12/30 12:26:59;;;;;;;114.52;57.83;;;;;;;4.14;78.76;98910.64;2116291;82;21214;-69
2020/12/30 12:30:01;;;;;;;97.55;50.58;;;;;;;4.16;78.70;98918.70;2114911;82;21518;-67
2020/12/30 12:33:02;;;;;;;102.67;52.05;;;;;;;4.19;78.60;98914.45;2116472;82;21081;-68
2020/12/30 12:36:12;;;;;;;92.45;48.25;;;;;;;4.23;78.51;98912.36;2114760;82;21211;-72
2020/12/30 12:39:14;;;;;;;90.73;48.03;;;;;;;4.24;78.41;98912.68;2118368;82;21117;-69
2020/12/30 12:42:17;;;;;;;83.72;44.20;;;;;;;4.35;78.41;98908.97;2117010;82;21196;-69
2020/12/30 12:45:21;;;;;;;80.42;44.35;;;;;;;4.42;78.38;98911.28;2112481;83;21164;-69
2020/12/30 12:48:25;;;;;;;81.40;41.02;;;;;;;4.44;78.14;98917.21;2115733;82;21120;-70
2020/12/30 12:51:26;;;;;;;81.50;42.85;;;;;;;4.39;78.08;98911.60;2119996;82;21763;-68
2020/12/30 12:54:32;;;;;;;74.70;40.05;;;;;;;4.39;78.09;98913.77;2117033;82;21132;-68
2020/12/30 12:57:34;;;;;;;74.25;38.73;;;;;;;4.35;77.97;98924.23;2116924;82;21208;-69
2020/12/30 13:00:35;;;;;;;71.95;37.50;;;;;;;4.37;78.12;98920.15;2118825;82;21098;-69
2020/12/30 13:03:37;;;;;;;67.65;35.58;;;;;;;4.33;77.92;98930.61;2119980;82;21089;-73
2020/12/30 13:06:38;;;;;;;61.33;33.80;;;;;;;4.32;77.89;98932.92;2118664;83;21625;-68
2020/12/30 13:09:40;;;;;;;68.72;36.00;;;;;;;4.32;77.88;98932.92;2117048;82;21166;-68
2020/12/30 13:12:42;;;;;;;68.87;38.58;;;;;;;4.25;77.63;98930.07;2119446;82;21572;-73
2020/12/30 13:15:43;;;;;;;73.10;41.05;;;;;;;4.14;77.63;98936.89;2119099;82;21145;-72
2020/12/30 13:18:45;;;;;;;73.60;41.15;;;;;;;4.11;77.78;98933.27;2117207;82;21149;-68
2020/12/30 13:21:47;;;;;;;69.80;40.83;;;;;;;4.06;77.81;98936.87;2120932;82;21204;-70
2020/12/30 13:24:49;;;;;;;70.52;37.33;;;;;;;4.00;77.86;98936.50;2113789;82;21165;-70
2020/12/30 13:27:50;;;;;;;69.53;38.23;;;;;;;3.90;77.73;98940.19;2118144;82;21204;-68
2020/12/30 13:30:55;;;;;;;68.72;38.75;;;;;;;3.69;77.69;98935.25;2117365;82;21157;-68
2020/12/30 13:33:59;;;;;;;90.62;45.38;;;;;;;3.63;77.98;98931.92;2116860;82;21545;-68
2020/12/30 13:37:05;;;;;;;95.35;50.90;;;;;;;3.58;78.04;98925.34;2122372;82;21137;-73
2020/12/30 13:40:06;;;;;;;79.00;43.28;;;;;;;3.59;78.11;98926.17;2116287;82;21180;-67
2020/12/30 13:43:08;;;;;;;67.72;35.70;;;;;;;3.54;78.08;98929.72;2117493;82;21181;-69
2020/12/30 13:46:10;;;;;;;80.45;40.60;;;;;;;3.51;78.21;98936.58;2122237;82;21172;-69
2020/12/30 13:49:11;;;;;;;79.67;42.85;;;;;;;3.50;78.18;98943.63;2117885;82;21066;-72
2020/12/30 13:52:17;;;;;;;98.67;48.87;;;;;;;3.46;78.09;98950.63;2119434;82;21142;-71
2020/12/30 13:55:19;;;;;;;109.95;54.42;;;;;;;3.41;78.20;98945.85;2114434;82;21172;-77
2020/12/30 13:58:20;;;;;;;135.50;66.55;;;;;;;3.39;78.22;98945.66;2118692;82;21232;-71
2020/12/30 14:01:22;;;;;;;144.47;70.65;;;;;;;3.36;78.20;98946.29;2119683;82;21129;-74
2020/12/30 14:04:24;;;;;;;126.72;63.87;;;;;;;3.26;78.07;98945.52;2119082;82;21197;-70
2020/12/30 14:07:28;;;;;;;103.45;56.15;;;;;;;3.21;78.33;98956.11;2114790;82;21572;-72